sensor_id;sensor_type;location;lat;lon;timestamp;pressure;altitude;pressure_sealevel;temperature;humidity
82668;BME280;72691;51.374;-0.176;2023-11-22T00:01:10;102668.33;;;12.95;43.88
82668;BME280;72691;51.374;-0.176;2023-11-22T00:03:33;102668.50;;;11.51;45.94
82668;BME280;72691;51.374;-0.176;2023-11-22T00:05:58;102667.41;;;12.18;45.08
82668;BME280;72691;51.374;-0.176;2023-11-22T00:08:24;102663.68;;;12.42;44.64
82668;BME280;72691;51.374;-0.176;2023-11-22T00:10:49;102664.29;;;12.86;43.89
82668;BME280;72691;51.374;-0.176;2023-11-22T00:13:14;102670.36;;;12.45;44.63
82668;BME280;72691;51.374;-0.176;2023-11-22T00:15:40;102680.31;;;12.92;43.74
82668;BME280;72691;51.374;-0.176;2023-11-22T00:18:05;102689.80;;;12.94;43.60
82668;BME280;72691;51.374;-0.176;2023-11-22T00:20:31;102693.37;;;12.89;43.60
82668;BME280;72691;51.374;-0.176;2023-11-22T00:22:57;102699.75;;;12.83;43.77
82668;BME280;72691;51.374;-0.176;2023-11-22T00:25:22;102702.15;;;12.28;44.29
82668;BME280;72691;51.374;-0.176;2023-11-22T00:27:47;102701.62;;;12.66;43.96
82668;BME280;72691;51.374;-0.176;2023-11-22T00:30:13;102703.31;;;12.91;43.99
82668;BME280;72691;51.374;-0.176;2023-11-22T00:32:38;102699.15;;;12.68;43.82
82668;BME280;72691;51.374;-0.176;2023-11-22T00:35:04;102692.72;;;12.48;44.02
82668;BME280;72691;51.374;-0.176;2023-11-22T00:37:28;102692.32;;;12.92;44.14
82668;BME280;72691;51.374;-0.176;2023-11-22T00:39:54;102688.16;;;12.40;44.27
82668;BME280;72691;51.374;-0.176;2023-11-22T00:42:19;102691.38;;;12.81;44.23
82668;BME280;72691;51.374;-0.176;2023-11-22T00:44:45;102696.16;;;12.68;44.34
82668;BME280;72691;51.374;-0.176;2023-11-22T00:47:10;102701.50;;;12.24;44.84
82668;BME280;72691;51.374;-0.176;2023-11-22T00:49:36;102697.96;;;12.41;44.43
82668;BME280;72691;51.374;-0.176;2023-11-22T00:52:01;102695.56;;;12.04;44.51
82668;BME280;72691;51.374;-0.176;2023-11-22T00:54:27;102695.88;;;11.89;44.78
82668;BME280;72691;51.374;-0.176;2023-11-22T00:56:52;102692.61;;;12.02;45.30
82668;BME280;72691;51.374;-0.176;2023-11-22T00:59:18;102687.82;;;11.79;46.10
82668;BME280;72691;51.374;-0.176;2023-11-22T01:01:43;102690.97;;;11.27;47.10
82668;BME280;72691;51.374;-0.176;2023-11-22T01:04:08;102683.34;;;10.97;47.55
82668;BME280;72691;51.374;-0.176;2023-11-22T01:06:34;102683.62;;;10.86;48.17
82668;BME280;72691;51.374;-0.176;2023-11-22T01:09:00;102688.13;;;10.45;48.90
82668;BME280;72691;51.374;-0.176;2023-11-22T01:11:25;102687.64;;;10.82;47.82
82668;BME280;72691;51.374;-0.176;2023-11-22T01:13:50;102687.26;;;11.14;47.70
82668;BME280;72691;51.374;-0.176;2023-11-22T01:16:16;102689.26;;;11.52;46.98
82668;BME280;72691;51.374;-0.176;2023-11-22T01:18:41;102691.60;;;11.53;46.52
82668;BME280;72691;51.374;-0.176;2023-11-22T01:21:07;102690.30;;;11.26;46.77
82668;BME280;72691;51.374;-0.176;2023-11-22T01:23:32;102692.29;;;11.32;47.31
82668;BME280;72691;51.374;-0.176;2023-11-22T01:25:58;102695.91;;;11.21;46.87
82668;BME280;72691;51.374;-0.176;2023-11-22T01:28:23;102699.08;;;11.46;46.44
82668;BME280;72691;51.374;-0.176;2023-11-22T01:30:48;102701.84;;;11.57;46.28
82668;BME280;72691;51.374;-0.176;2023-11-22T01:33:14;102704.46;;;11.22;47.00
82668;BME280;72691;51.374;-0.176;2023-11-22T01:35:39;102703.03;;;11.41;47.05
82668;BME280;72691;51.374;-0.176;2023-11-22T01:38:05;102706.13;;;11.21;47.49
82668;BME280;72691;51.374;-0.176;2023-11-22T01:40:30;102709.99;;;10.27;48.90
82668;BME280;72691;51.374;-0.176;2023-11-22T01:42:56;102719.70;;;10.05;49.28
82668;BME280;72691;51.374;-0.176;2023-11-22T01:45:20;102721.70;;;11.02;48.49
82668;BME280;72691;51.374;-0.176;2023-11-22T01:47:46;102723.69;;;10.89;48.29
82668;BME280;72691;51.374;-0.176;2023-11-22T01:50:11;102720.82;;;11.30;47.61
82668;BME280;72691;51.374;-0.176;2023-11-22T01:52:36;102723.37;;;10.95;48.11
82668;BME280;72691;51.374;-0.176;2023-11-22T01:55:03;102717.07;;;11.19;47.63
82668;BME280;72691;51.374;-0.176;2023-11-22T01:57:28;102707.35;;;11.43;47.69
82668;BME280;72691;51.374;-0.176;2023-11-22T01:59:53;102709.12;;;11.03;47.93
82668;BME280;72691;51.374;-0.176;2023-11-22T02:02:18;102707.99;;;11.35;47.39
82668;BME280;72691;51.374;-0.176;2023-11-22T02:04:43;102705.00;;;11.40;47.20
82668;BME280;72691;51.374;-0.176;2023-11-22T02:07:08;102709.47;;;11.44;47.55
82668;BME280;72691;51.374;-0.176;2023-11-22T02:09:33;102720.24;;;11.28;47.47
82668;BME280;72691;51.374;-0.176;2023-11-22T02:11:59;102727.13;;;11.49;47.19
82668;BME280;72691;51.374;-0.176;2023-11-22T02:14:25;102721.35;;;10.71;48.11
82668;BME280;72691;51.374;-0.176;2023-11-22T02:16:50;102719.72;;;11.28;47.59
82668;BME280;72691;51.374;-0.176;2023-11-22T02:19:17;102719.82;;;11.09;48.30
82668;BME280;72691;51.374;-0.176;2023-11-22T02:21:41;102717.26;;;11.46;47.75
82668;BME280;72691;51.374;-0.176;2023-11-22T02:24:07;102720.82;;;11.03;47.67
82668;BME280;72691;51.374;-0.176;2023-11-22T02:26:33;102725.42;;;11.32;47.11
82668;BME280;72691;51.374;-0.176;2023-11-22T02:28:58;102725.91;;;10.75;48.54
82668;BME280;72691;51.374;-0.176;2023-11-22T02:31:23;102720.52;;;11.17;47.87
82668;BME280;72691;51.374;-0.176;2023-11-22T02:33:49;102726.20;;;11.24;47.33
82668;BME280;72691;51.374;-0.176;2023-11-22T02:36:15;102726.10;;;11.88;46.67
82668;BME280;72691;51.374;-0.176;2023-11-22T02:38:40;102719.25;;;11.96;46.17
82668;BME280;72691;51.374;-0.176;2023-11-22T02:41:05;102713.36;;;12.01;46.04
82668;BME280;72691;51.374;-0.176;2023-11-22T02:43:31;102705.85;;;11.68;46.49
82668;BME280;72691;51.374;-0.176;2023-11-22T02:45:56;102706.46;;;11.82;46.34
82668;BME280;72691;51.374;-0.176;2023-11-22T02:48:21;102703.07;;;11.88;46.26
82668;BME280;72691;51.374;-0.176;2023-11-22T02:50:47;102705.55;;;12.23;46.05
82668;BME280;72691;51.374;-0.176;2023-11-22T02:53:12;102701.69;;;11.67;45.78
82668;BME280;72691;51.374;-0.176;2023-11-22T02:55:37;102705.12;;;12.12;45.75
82668;BME280;72691;51.374;-0.176;2023-11-22T02:58:03;102711.79;;;12.07;45.79
82668;BME280;72691;51.374;-0.176;2023-11-22T03:00:28;102716.31;;;11.92;46.05
82668;BME280;72691;51.374;-0.176;2023-11-22T03:02:54;102726.34;;;11.43;46.45
82668;BME280;72691;51.374;-0.176;2023-11-22T03:05:19;102723.45;;;11.75;46.33
82668;BME280;72691;51.374;-0.176;2023-11-22T03:07:45;102726.27;;;11.16;47.22
82668;BME280;72691;51.374;-0.176;2023-11-22T03:10:10;102725.84;;;11.29;47.11
82668;BME280;72691;51.374;-0.176;2023-11-22T03:12:35;102717.72;;;11.56;46.71
82668;BME280;72691;51.374;-0.176;2023-11-22T03:15:01;102716.96;;;11.68;47.26
82668;BME280;72691;51.374;-0.176;2023-11-22T03:17:27;102713.53;;;10.91;47.38
82668;BME280;72691;51.374;-0.176;2023-11-22T03:19:51;102714.25;;;11.51;47.22
82668;BME280;72691;51.374;-0.176;2023-11-22T03:22:17;102712.57;;;11.00;47.58
82668;BME280;72691;51.374;-0.176;2023-11-22T03:24:42;102710.32;;;10.60;48.24
82668;BME280;72691;51.374;-0.176;2023-11-22T03:27:07;102712.49;;;11.77;47.20
82668;BME280;72691;51.374;-0.176;2023-11-22T03:29:33;102712.96;;;11.16;48.19
82668;BME280;72691;51.374;-0.176;2023-11-22T03:31:58;102715.29;;;10.49;48.35
82668;BME280;72691;51.374;-0.176;2023-11-22T03:34:24;102714.99;;;10.74;48.31
82668;BME280;72691;51.374;-0.176;2023-11-22T03:36:49;102720.03;;;10.25;49.52
82668;BME280;72691;51.374;-0.176;2023-11-22T03:39:15;102720.73;;;10.16;49.78
82668;BME280;72691;51.374;-0.176;2023-11-22T03:41:40;102729.88;;;10.43;49.26
82668;BME280;72691;51.374;-0.176;2023-11-22T03:44:06;102732.79;;;10.16;49.78
82668;BME280;72691;51.374;-0.176;2023-11-22T03:46:32;102744.22;;;10.32;49.44
82668;BME280;72691;51.374;-0.176;2023-11-22T03:48:57;102759.65;;;9.96;50.11
82668;BME280;72691;51.374;-0.176;2023-11-22T03:51:22;102768.04;;;10.02;49.85
82668;BME280;72691;51.374;-0.176;2023-11-22T03:53:48;102763.19;;;10.12;49.85
82668;BME280;72691;51.374;-0.176;2023-11-22T03:56:13;102755.68;;;10.69;48.22
82668;BME280;72691;51.374;-0.176;2023-11-22T03:58:40;102756.69;;;10.85;47.97
82668;BME280;72691;51.374;-0.176;2023-11-22T04:01:04;102757.03;;;9.85;49.91
82668;BME280;72691;51.374;-0.176;2023-11-22T04:03:29;102760.15;;;9.14;51.23
82668;BME280;72691;51.374;-0.176;2023-11-22T04:05:55;102760.32;;;8.82;53.26
82668;BME280;72691;51.374;-0.176;2023-11-22T04:08:20;102758.63;;;8.79;53.50
82668;BME280;72691;51.374;-0.176;2023-11-22T04:10:46;102757.20;;;8.36;53.72
82668;BME280;72691;51.374;-0.176;2023-11-22T04:13:11;102756.97;;;8.89;52.82
82668;BME280;72691;51.374;-0.176;2023-11-22T04:15:37;102760.11;;;9.42;51.80
82668;BME280;72691;51.374;-0.176;2023-11-22T04:18:03;102760.34;;;9.67;50.85
82668;BME280;72691;51.374;-0.176;2023-11-22T04:20:28;102763.27;;;9.61;50.99
82668;BME280;72691;51.374;-0.176;2023-11-22T04:22:53;102767.31;;;9.94;50.61
82668;BME280;72691;51.374;-0.176;2023-11-22T04:25:19;102763.95;;;9.03;51.66
82668;BME280;72691;51.374;-0.176;2023-11-22T04:27:44;102762.78;;;8.12;53.19
82668;BME280;72691;51.374;-0.176;2023-11-22T04:30:11;102763.42;;;8.56;53.60
82668;BME280;72691;51.374;-0.176;2023-11-22T04:32:36;102765.07;;;9.12;52.54
82668;BME280;72691;51.374;-0.176;2023-11-22T04:35:01;102770.39;;;9.21;51.84
82668;BME280;72691;51.374;-0.176;2023-11-22T04:37:26;102778.63;;;9.55;51.26
82668;BME280;72691;51.374;-0.176;2023-11-22T04:39:51;102776.42;;;9.44;50.44
82668;BME280;72691;51.374;-0.176;2023-11-22T04:42:17;102782.81;;;8.78;51.38
82668;BME280;72691;51.374;-0.176;2023-11-22T04:44:42;102780.82;;;9.51;50.61
82668;BME280;72691;51.374;-0.176;2023-11-22T04:47:08;102783.97;;;9.33;51.78
82668;BME280;72691;51.374;-0.176;2023-11-22T04:49:33;102785.06;;;9.89;50.49
82668;BME280;72691;51.374;-0.176;2023-11-22T04:51:58;102778.08;;;9.92;49.90
82668;BME280;72691;51.374;-0.176;2023-11-22T04:54:24;102779.46;;;8.79;52.56
82668;BME280;72691;51.374;-0.176;2023-11-22T04:56:50;102775.25;;;8.53;53.30
82668;BME280;72691;51.374;-0.176;2023-11-22T04:59:15;102771.88;;;8.56;53.21
82668;BME280;72691;51.374;-0.176;2023-11-22T05:01:40;102768.92;;;8.98;52.63
82668;BME280;72691;51.374;-0.176;2023-11-22T05:04:06;102760.42;;;9.06;52.75
82668;BME280;72691;51.374;-0.176;2023-11-22T05:06:31;102753.84;;;8.73;52.72
82668;BME280;72691;51.374;-0.176;2023-11-22T05:08:57;102753.37;;;9.42;51.89
82668;BME280;72691;51.374;-0.176;2023-11-22T05:11:22;102756.99;;;9.08;52.23
82668;BME280;72691;51.374;-0.176;2023-11-22T05:13:47;102762.45;;;8.91;52.15
82668;BME280;72691;51.374;-0.176;2023-11-22T05:16:13;102769.14;;;9.07;52.53
82668;BME280;72691;51.374;-0.176;2023-11-22T05:18:38;102776.08;;;9.24;52.05
82668;BME280;72691;51.374;-0.176;2023-11-22T05:21:04;102783.64;;;8.35;52.56
82668;BME280;72691;51.374;-0.176;2023-11-22T05:23:29;102773.22;;;8.60;53.10
82668;BME280;72691;51.374;-0.176;2023-11-22T05:25:55;102774.56;;;8.89;52.82
82668;BME280;72691;51.374;-0.176;2023-11-22T05:28:21;102774.48;;;8.93;51.81
82668;BME280;72691;51.374;-0.176;2023-11-22T05:30:46;102774.66;;;9.59;51.39
82668;BME280;72691;51.374;-0.176;2023-11-22T05:33:11;102788.25;;;8.93;52.48
82668;BME280;72691;51.374;-0.176;2023-11-22T05:35:36;102796.85;;;9.02;52.51
82668;BME280;72691;51.374;-0.176;2023-11-22T05:38:02;102794.10;;;8.65;52.52
82668;BME280;72691;51.374;-0.176;2023-11-22T05:40:27;102785.34;;;8.99;52.84
82668;BME280;72691;51.374;-0.176;2023-11-22T05:42:53;102792.53;;;7.98;55.08
82668;BME280;72691;51.374;-0.176;2023-11-22T05:45:18;102792.39;;;7.77;55.13
82668;BME280;72691;51.374;-0.176;2023-11-22T05:47:43;102798.96;;;7.93;55.07
82668;BME280;72691;51.374;-0.176;2023-11-22T05:50:09;102792.16;;;7.01;56.87
82668;BME280;72691;51.374;-0.176;2023-11-22T05:52:34;102790.46;;;7.63;56.01
82668;BME280;72691;51.374;-0.176;2023-11-22T05:54:59;102787.47;;;7.69;54.51
82668;BME280;72691;51.374;-0.176;2023-11-22T05:57:25;102777.97;;;7.80;54.95
82668;BME280;72691;51.374;-0.176;2023-11-22T05:59:51;102782.19;;;7.99;54.49
82668;BME280;72691;51.374;-0.176;2023-11-22T06:02:16;102782.05;;;8.69;53.19
82668;BME280;72691;51.374;-0.176;2023-11-22T06:04:41;102770.79;;;8.98;52.50
82668;BME280;72691;51.374;-0.176;2023-11-22T06:07:06;102761.72;;;8.68;52.55
82668;BME280;72691;51.374;-0.176;2023-11-22T06:09:32;102748.08;;;8.75;52.77
82668;BME280;72691;51.374;-0.176;2023-11-22T06:11:57;102748.05;;;8.79;53.30
82668;BME280;72691;51.374;-0.176;2023-11-22T06:14:23;102746.78;;;8.25;53.57
82668;BME280;72691;51.374;-0.176;2023-11-22T06:16:48;102751.82;;;8.79;52.79
82668;BME280;72691;51.374;-0.176;2023-11-22T06:19:13;102761.03;;;8.51;53.02
82668;BME280;72691;51.374;-0.176;2023-11-22T06:21:39;102762.85;;;8.94;52.59
82668;BME280;72691;51.374;-0.176;2023-11-22T06:24:04;102758.92;;;8.69;52.68
82668;BME280;72691;51.374;-0.176;2023-11-22T06:26:29;102765.62;;;9.01;51.97
82668;BME280;72691;51.374;-0.176;2023-11-22T06:28:55;102764.57;;;8.64;52.70
82668;BME280;72691;51.374;-0.176;2023-11-22T06:31:21;102766.19;;;9.11;51.25
82668;BME280;72691;51.374;-0.176;2023-11-22T06:33:46;102769.62;;;9.25;51.81
82668;BME280;72691;51.374;-0.176;2023-11-22T06:36:12;102769.93;;;8.98;51.80
82668;BME280;72691;51.374;-0.176;2023-11-22T06:38:37;102769.96;;;9.19;51.24
82668;BME280;72691;51.374;-0.176;2023-11-22T06:41:03;102781.37;;;9.19;51.42
82668;BME280;72691;51.374;-0.176;2023-11-22T06:43:28;102786.57;;;9.51;50.82
82668;BME280;72691;51.374;-0.176;2023-11-22T06:45:54;102792.89;;;8.79;51.99
82668;BME280;72691;51.374;-0.176;2023-11-22T06:48:19;102800.70;;;8.62;52.60
82668;BME280;72691;51.374;-0.176;2023-11-22T06:50:44;102811.37;;;8.03;54.68
82668;BME280;72691;51.374;-0.176;2023-11-22T06:53:09;102809.73;;;8.13;54.47
82668;BME280;72691;51.374;-0.176;2023-11-22T06:55:35;102804.44;;;7.84;54.45
82668;BME280;72691;51.374;-0.176;2023-11-22T06:58:00;102798.78;;;8.20;54.52
82668;BME280;72691;51.374;-0.176;2023-11-22T07:00:25;102790.94;;;7.95;55.00
82668;BME280;72691;51.374;-0.176;2023-11-22T07:02:51;102784.88;;;8.34;54.14
82668;BME280;72691;51.374;-0.176;2023-11-22T07:05:16;102775.70;;;8.93;53.48
82668;BME280;72691;51.374;-0.176;2023-11-22T07:07:41;102766.95;;;8.70;53.44
82668;BME280;72691;51.374;-0.176;2023-11-22T07:10:07;102768.84;;;8.67;54.30
82668;BME280;72691;51.374;-0.176;2023-11-22T07:12:32;102765.62;;;9.15;53.00
82668;BME280;72691;51.374;-0.176;2023-11-22T07:14:57;102758.88;;;8.82;53.41
82668;BME280;72691;51.374;-0.176;2023-11-22T07:17:23;102759.86;;;8.97;53.04
82668;BME280;72691;51.374;-0.176;2023-11-22T07:19:49;102752.34;;;8.86;52.85
82668;BME280;72691;51.374;-0.176;2023-11-22T07:22:14;102753.11;;;9.51;51.96
82668;BME280;72691;51.374;-0.176;2023-11-22T07:24:40;102746.09;;;10.13;50.82
82668;BME280;72691;51.374;-0.176;2023-11-22T07:27:05;102749.89;;;9.78;50.44
82668;BME280;72691;51.374;-0.176;2023-11-22T07:29:31;102769.23;;;9.43;51.13
82668;BME280;72691;51.374;-0.176;2023-11-22T07:31:57;102789.03;;;8.39;53.66
82668;BME280;72691;51.374;-0.176;2023-11-22T07:34:22;102799.62;;;8.42;53.19
82668;BME280;72691;51.374;-0.176;2023-11-22T07:36:47;102798.26;;;9.01;52.38
82668;BME280;72691;51.374;-0.176;2023-11-22T07:39:12;102800.19;;;9.46;51.68
82668;BME280;72691;51.374;-0.176;2023-11-22T07:41:38;102804.72;;;8.99;51.86
82668;BME280;72691;51.374;-0.176;2023-11-22T07:44:04;102812.86;;;9.33;51.57
82668;BME280;72691;51.374;-0.176;2023-11-22T07:46:29;102811.88;;;9.72;50.98
82668;BME280;72691;51.374;-0.176;2023-11-22T07:48:54;102816.44;;;9.94;50.45
82668;BME280;72691;51.374;-0.176;2023-11-22T07:51:19;102823.98;;;9.40;51.00
82668;BME280;72691;51.374;-0.176;2023-11-22T07:53:45;102826.63;;;9.42;50.71
82668;BME280;72691;51.374;-0.176;2023-11-22T07:56:11;102823.45;;;8.91;51.99
82668;BME280;72691;51.374;-0.176;2023-11-22T07:58:36;102826.54;;;9.17;51.96
82668;BME280;72691;51.374;-0.176;2023-11-22T08:01:01;102818.69;;;8.64;52.81
82668;BME280;72691;51.374;-0.176;2023-11-22T08:03:27;102820.33;;;8.56;53.62
82668;BME280;72691;51.374;-0.176;2023-11-22T08:05:52;102824.98;;;9.09;52.58
82668;BME280;72691;51.374;-0.176;2023-11-22T08:08:18;102833.54;;;8.88;52.52
82668;BME280;72691;51.374;-0.176;2023-11-22T08:10:44;102834.62;;;9.56;51.88
82668;BME280;72691;51.374;-0.176;2023-11-22T08:13:09;102838.91;;;8.46;53.46
82668;BME280;72691;51.374;-0.176;2023-11-22T08:15:34;102833.15;;;9.70;51.74
82668;BME280;72691;51.374;-0.176;2023-11-22T08:17:59;102841.51;;;9.23;52.54
82668;BME280;72691;51.374;-0.176;2023-11-22T08:20:25;102842.93;;;8.71;53.08
82668;BME280;72691;51.374;-0.176;2023-11-22T08:22:50;102841.01;;;8.78;53.84
82668;BME280;72691;51.374;-0.176;2023-11-22T08:25:15;102839.80;;;8.64;54.13
82668;BME280;72691;51.374;-0.176;2023-11-22T08:27:41;102836.40;;;9.03;53.59
82668;BME280;72691;51.374;-0.176;2023-11-22T08:30:07;102828.60;;;9.87;51.87
82668;BME280;72691;51.374;-0.176;2023-11-22T08:32:31;102834.58;;;9.57;51.97
82668;BME280;72691;51.374;-0.176;2023-11-22T08:34:57;102837.01;;;9.78;51.92
82668;BME280;72691;51.374;-0.176;2023-11-22T08:37:22;102825.65;;;10.00;51.13
82668;BME280;72691;51.374;-0.176;2023-11-22T08:39:47;102827.53;;;9.83;51.07
82668;BME280;72691;51.374;-0.176;2023-11-22T08:42:12;102828.43;;;10.46;49.98
82668;BME280;72691;51.374;-0.176;2023-11-22T08:44:38;102819.85;;;10.71;49.23
82668;BME280;72691;51.374;-0.176;2023-11-22T08:47:03;102819.02;;;10.98;48.93
82668;BME280;72691;51.374;-0.176;2023-11-22T08:49:28;102818.56;;;10.60;48.98
82668;BME280;72691;51.374;-0.176;2023-11-22T08:51:54;102817.65;;;11.06;48.64
82668;BME280;72691;51.374;-0.176;2023-11-22T08:54:19;102826.00;;;10.44;49.16
82668;BME280;72691;51.374;-0.176;2023-11-22T08:56:45;102831.04;;;10.90;48.58
82668;BME280;72691;51.374;-0.176;2023-11-22T08:59:10;102828.11;;;9.95;50.67
82668;BME280;72691;51.374;-0.176;2023-11-22T09:01:36;102808.17;;;9.63;51.09
82668;BME280;72691;51.374;-0.176;2023-11-22T09:04:01;102795.42;;;9.99;51.76
82668;BME280;72691;51.374;-0.176;2023-11-22T09:06:27;102802.73;;;9.61;51.98
82668;BME280;72691;51.374;-0.176;2023-11-22T09:08:52;102807.34;;;10.00;51.12
82668;BME280;72691;51.374;-0.176;2023-11-22T09:11:17;102807.73;;;10.17;50.87
82668;BME280;72691;51.374;-0.176;2023-11-22T09:13:43;102811.31;;;10.80;49.88
82668;BME280;72691;51.374;-0.176;2023-11-22T09:16:08;102805.96;;;10.87;49.03
82668;BME280;72691;51.374;-0.176;2023-11-22T09:18:33;102798.69;;;10.74;49.75
82668;BME280;72691;51.374;-0.176;2023-11-22T09:20:59;102795.86;;;10.60;50.78
82668;BME280;72691;51.374;-0.176;2023-11-22T09:23:25;102795.08;;;10.28;50.96
82668;BME280;72691;51.374;-0.176;2023-11-22T09:25:51;102785.77;;;10.05;51.23
82668;BME280;72691;51.374;-0.176;2023-11-22T09:28:15;102789.29;;;10.20;50.74
82668;BME280;72691;51.374;-0.176;2023-11-22T09:30:41;102791.49;;;10.68;50.64
82668;BME280;72691;51.374;-0.176;2023-11-22T09:33:08;102791.77;;;10.65;50.11
82668;BME280;72691;51.374;-0.176;2023-11-22T09:35:32;102802.20;;;10.05;51.66
82668;BME280;72691;51.374;-0.176;2023-11-22T09:37:58;102817.82;;;10.00;51.97
82668;BME280;72691;51.374;-0.176;2023-11-22T09:40:23;102817.46;;;9.88;51.48
82668;BME280;72691;51.374;-0.176;2023-11-22T09:42:48;102813.50;;;10.13;51.78
82668;BME280;72691;51.374;-0.176;2023-11-22T09:45:13;102808.11;;;9.63;52.58
82668;BME280;72691;51.374;-0.176;2023-11-22T09:47:39;102798.86;;;10.63;50.36
82668;BME280;72691;51.374;-0.176;2023-11-22T09:50:06;102793.84;;;10.71;50.64
82668;BME280;72691;51.374;-0.176;2023-11-22T09:52:30;102785.74;;;9.98;51.77
82668;BME280;72691;51.374;-0.176;2023-11-22T09:54:55;102783.35;;;9.65;52.52
82668;BME280;72691;51.374;-0.176;2023-11-22T09:57:20;102787.24;;;9.09;53.43
82668;BME280;72691;51.374;-0.176;2023-11-22T09:59:48;102787.61;;;9.09;53.83
82668;BME280;72691;51.374;-0.176;2023-11-22T10:02:11;102782.20;;;9.78;52.03
82668;BME280;72691;51.374;-0.176;2023-11-22T10:04:36;102782.20;;;9.60;52.06
82668;BME280;72691;51.374;-0.176;2023-11-22T10:07:02;102778.91;;;9.74;52.36
82668;BME280;72691;51.374;-0.176;2023-11-22T10:09:27;102772.76;;;8.77;52.68
82668;BME280;72691;51.374;-0.176;2023-11-22T10:11:56;102773.94;;;8.28;53.62
82668;BME280;72691;51.374;-0.176;2023-11-22T10:14:22;102768.84;;;8.59;52.92
82668;BME280;72691;51.374;-0.176;2023-11-22T10:19:10;102771.51;;;8.98;51.48
82668;BME280;72691;51.374;-0.176;2023-11-22T10:21:35;102774.14;;;8.67;52.11
82668;BME280;72691;51.374;-0.176;2023-11-22T10:24:01;102771.56;;;8.83;51.67
82668;BME280;72691;51.374;-0.176;2023-11-22T10:26:26;102775.61;;;8.77;51.82
82668;BME280;72691;51.374;-0.176;2023-11-22T10:28:51;102776.91;;;8.82;51.58
82668;BME280;72691;51.374;-0.176;2023-11-22T10:31:19;102775.87;;;7.52;51.67
82668;BME280;72691;51.374;-0.176;2023-11-22T10:33:43;102781.47;;;9.37;49.73
82668;BME280;72691;51.374;-0.176;2023-11-22T10:36:09;102773.39;;;10.04;49.67
82668;BME280;72691;51.374;-0.176;2023-11-22T10:38:35;102776.19;;;8.88;51.97
82668;BME280;72691;51.374;-0.176;2023-11-22T10:41:00;102764.41;;;9.40;50.14
82668;BME280;72691;51.374;-0.176;2023-11-22T10:43:27;102759.59;;;9.56;50.66
82668;BME280;72691;51.374;-0.176;2023-11-22T10:45:52;102758.39;;;9.32;51.15
82668;BME280;72691;51.374;-0.176;2023-11-22T10:48:17;102747.46;;;8.76;51.33
82668;BME280;72691;51.374;-0.176;2023-11-22T10:50:42;102747.09;;;8.76;52.25
82668;BME280;72691;51.374;-0.176;2023-11-22T10:53:11;102748.77;;;8.65;53.32
82668;BME280;72691;51.374;-0.176;2023-11-22T10:55:34;102747.77;;;9.14;52.51
82668;BME280;72691;51.374;-0.176;2023-11-22T10:58:02;102744.11;;;8.80;52.10
82668;BME280;72691;51.374;-0.176;2023-11-22T11:00:25;102747.42;;;8.61;52.43
82668;BME280;72691;51.374;-0.176;2023-11-22T11:02:53;102735.36;;;8.91;52.56
82668;BME280;72691;51.374;-0.176;2023-11-22T11:05:18;102738.94;;;8.59;52.95
82668;BME280;72691;51.374;-0.176;2023-11-22T11:07:45;102738.66;;;8.85;53.50
82668;BME280;72691;51.374;-0.176;2023-11-22T11:10:06;102743.13;;;8.11;54.15
82668;BME280;72691;51.374;-0.176;2023-11-22T11:12:31;102736.23;;;8.87;52.78
82668;BME280;72691;51.374;-0.176;2023-11-22T11:14:57;102720.79;;;8.98;52.30
82668;BME280;72691;51.374;-0.176;2023-11-22T11:17:22;102717.99;;;9.06;52.06
82668;BME280;72691;51.374;-0.176;2023-11-22T11:19:47;102732.55;;;8.32;53.09
82668;BME280;72691;51.374;-0.176;2023-11-22T11:22:13;102735.15;;;9.34;51.27
82668;BME280;72691;51.374;-0.176;2023-11-22T11:24:39;102736.26;;;9.29;50.53
82668;BME280;72691;51.374;-0.176;2023-11-22T11:27:04;102739.98;;;9.18;51.69
82668;BME280;72691;51.374;-0.176;2023-11-22T11:29:30;102734.14;;;9.75;51.17
82668;BME280;72691;51.374;-0.176;2023-11-22T11:31:56;102729.47;;;8.90;51.52
82668;BME280;72691;51.374;-0.176;2023-11-22T11:34:23;102734.16;;;9.18;51.82
82668;BME280;72691;51.374;-0.176;2023-11-22T11:36:52;102726.82;;;9.61;50.31
82668;BME280;72691;51.374;-0.176;2023-11-22T11:39:13;102726.87;;;9.22;51.15
82668;BME280;72691;51.374;-0.176;2023-11-22T11:41:36;102719.64;;;9.13;51.86
82668;BME280;72691;51.374;-0.176;2023-11-22T11:44:02;102705.54;;;9.69;50.72
82668;BME280;72691;51.374;-0.176;2023-11-22T11:46:29;102691.87;;;9.14;51.05
82668;BME280;72691;51.374;-0.176;2023-11-22T11:48:53;102690.63;;;8.63;52.39
82668;BME280;72691;51.374;-0.176;2023-11-22T11:51:19;102691.08;;;9.69;51.40
82668;BME280;72691;51.374;-0.176;2023-11-22T11:53:45;102694.17;;;9.22;51.90
82668;BME280;72691;51.374;-0.176;2023-11-22T11:56:10;102686.75;;;9.54;50.74
82668;BME280;72691;51.374;-0.176;2023-11-22T11:58:34;102675.72;;;9.57;51.00
82668;BME280;72691;51.374;-0.176;2023-11-22T12:01:00;102670.99;;;8.94;52.31
82668;BME280;72691;51.374;-0.176;2023-11-22T12:03:25;102658.10;;;9.18;52.38
82668;BME280;72691;51.374;-0.176;2023-11-22T12:05:51;102647.63;;;9.15;52.30
82668;BME280;72691;51.374;-0.176;2023-11-22T12:08:17;102632.77;;;9.68;51.23
82668;BME280;72691;51.374;-0.176;2023-11-22T12:10:42;102619.74;;;9.30;52.20
82668;BME280;72691;51.374;-0.176;2023-11-22T12:13:07;102595.21;;;8.84;52.66
82668;BME280;72691;51.374;-0.176;2023-11-22T12:15:33;102589.48;;;8.72;53.91
82668;BME280;72691;51.374;-0.176;2023-11-22T12:17:58;102604.26;;;8.36;54.49
82668;BME280;72691;51.374;-0.176;2023-11-22T12:20:24;102603.52;;;8.84;53.35
82668;BME280;72691;51.374;-0.176;2023-11-22T12:22:49;102609.78;;;9.88;51.61
82668;BME280;72691;51.374;-0.176;2023-11-22T12:25:15;102604.31;;;8.92;53.48
82668;BME280;72691;51.374;-0.176;2023-11-22T12:27:41;102613.78;;;8.71;53.65
82668;BME280;72691;51.374;-0.176;2023-11-22T12:30:07;102615.69;;;8.03;55.59
82668;BME280;72691;51.374;-0.176;2023-11-22T12:32:31;102622.58;;;9.34;53.27
82668;BME280;72691;51.374;-0.176;2023-11-22T12:34:57;102633.85;;;8.10;55.21
82668;BME280;72691;51.374;-0.176;2023-11-22T12:37:22;102645.08;;;8.63;54.78